createdAt,value
2023-09-17T00:00:10.770Z,4.85
2023-09-17T00:02:39.478Z,5.05
2023-09-17T00:05:08.171Z,5.00
2023-09-17T00:07:37.254Z,5.10
2023-09-17T00:10:07.143Z,5.50
2023-09-17T00:12:35.782Z,5.07
2023-09-17T00:15:04.876Z,5.40
2023-09-17T00:17:35.128Z,5.20
2023-09-17T00:20:04.683Z,5.03
2023-09-17T00:22:33.309Z,5.40
2023-09-17T00:25:02.143Z,5.20
2023-09-17T00:27:30.892Z,5.33
2023-09-17T00:30:00.146Z,5.33
2023-09-17T00:32:29.226Z,5.20
2023-09-17T00:34:58.883Z,6.03
2023-09-17T00:37:30.894Z,5.10
2023-09-17T00:40:03.251Z,5.73
2023-09-17T00:42:31.509Z,5.75
2023-09-17T00:45:00.965Z,5.97
2023-09-17T00:47:30.156Z,6.13
2023-09-17T00:50:04.144Z,5.53
2023-09-17T00:52:34.445Z,5.73
2023-09-17T00:55:06.162Z,5.63
2023-09-17T00:57:38.020Z,5.50
2023-09-17T01:00:10.267Z,5.50
2023-09-17T01:02:41.342Z,5.70
2023-09-17T01:05:11.462Z,5.80
2023-09-17T01:07:41.236Z,5.90
2023-09-17T01:10:10.951Z,5.20
2023-09-17T01:12:41.276Z,6.00
2023-09-17T01:15:10.871Z,5.70
2023-09-17T01:17:43.208Z,5.70
2023-09-17T01:20:29.922Z,5.87
2023-09-17T01:23:03.337Z,5.93
2023-09-17T01:25:44.233Z,5.37
2023-09-17T01:28:14.779Z,5.70
2023-09-17T01:30:46.216Z,6.00
2023-09-17T01:33:14.391Z,5.50
2023-09-17T01:35:53.546Z,5.53
2023-09-17T01:38:23.964Z,6.20
2023-09-17T01:40:57.173Z,5.70
2023-09-17T01:43:29.809Z,5.87
2023-09-17T01:45:59.205Z,6.10
2023-09-17T01:48:31.735Z,5.50
2023-09-17T01:51:02.192Z,5.53
2023-09-17T01:53:31.063Z,6.00
2023-09-17T01:56:00.209Z,5.63
2023-09-17T02:01:23.080Z,6.23
2023-09-17T02:03:51.545Z,6.13
2023-09-17T02:06:20.011Z,6.37
2023-09-17T02:08:48.908Z,6.73
2023-09-17T02:11:20.219Z,6.73
2023-09-17T02:13:50.233Z,6.03
2023-09-17T02:16:18.512Z,6.70
2023-09-17T02:18:47.444Z,6.63
2023-09-17T02:21:17.563Z,7.10
2023-09-17T02:23:50.488Z,6.40
2023-09-17T02:26:19.180Z,6.60
2023-09-17T02:28:47.274Z,6.93
2023-09-17T02:31:18.289Z,7.20
2023-09-17T02:33:46.666Z,6.87
2023-09-17T02:36:16.367Z,6.27
2023-09-17T02:38:46.192Z,6.93
2023-09-17T02:41:14.961Z,7.40
2023-09-17T02:43:45.227Z,7.67
2023-09-17T02:46:17.638Z,7.30
2023-09-17T02:48:48.745Z,7.43
2023-09-17T02:51:21.224Z,6.93
2023-09-17T02:53:52.619Z,7.10
2023-09-17T02:56:22.244Z,7.17
2023-09-17T02:58:50.665Z,6.30
2023-09-17T03:01:20.323Z,6.77
2023-09-17T03:03:53.741Z,7.37
2023-09-17T03:06:21.974Z,6.80
2023-09-17T03:08:52.237Z,7.10
2023-09-17T03:11:21.800Z,6.93
2023-09-17T03:13:50.870Z,6.93
2023-09-17T03:16:21.564Z,7.70
2023-09-17T03:18:51.126Z,7.53
2023-09-17T03:21:20.261Z,6.77
2023-09-17T03:23:54.277Z,7.27
2023-09-17T03:26:23.674Z,6.87
2023-09-17T03:28:51.855Z,6.73
2023-09-17T03:31:22.325Z,6.57
2023-09-17T03:33:53.783Z,6.33
2023-09-17T03:36:24.243Z,7.03
2023-09-17T03:38:54.226Z,6.20
2023-09-17T03:41:22.600Z,7.20
2023-09-17T03:43:52.615Z,6.93
2023-09-17T03:46:21.434Z,6.43
2023-09-17T03:48:54.352Z,6.60
2023-09-17T03:51:22.634Z,6.73
2023-09-17T03:53:51.404Z,6.27
2023-09-17T03:56:20.960Z,6.67
2023-09-17T03:58:49.834Z,7.37
2023-09-17T04:01:21.787Z,6.60
2023-09-17T04:03:51.143Z,6.83
2023-09-17T04:06:22.252Z,7.27
2023-09-17T04:08:51.238Z,8.00
2023-09-17T04:11:22.260Z,6.60
2023-09-17T04:13:51.409Z,6.93
2023-09-17T04:16:22.388Z,7.13
2023-09-17T04:18:57.038Z,6.43
2023-09-17T04:21:26.558Z,6.57
2023-09-17T04:23:55.340Z,7.60
2023-09-17T04:26:26.243Z,7.17
2023-09-17T04:28:54.784Z,7.50
2023-09-17T04:31:24.295Z,7.33
2023-09-17T04:33:53.188Z,7.03
2023-09-17T04:36:21.518Z,6.97
2023-09-17T04:38:54.286Z,7.60
2023-09-17T04:41:22.891Z,7.53
2023-09-17T04:43:51.440Z,6.83
2023-09-17T04:46:20.171Z,7.37
2023-09-17T04:48:53.240Z,7.40
2023-09-17T04:51:23.291Z,7.07
2023-09-17T04:53:53.536Z,7.07
2023-09-17T04:56:22.330Z,6.97
2023-09-17T04:58:50.618Z,6.93
2023-09-17T05:01:18.888Z,7.10
2023-09-17T05:03:49.392Z,7.10
2023-09-17T05:06:19.530Z,6.87
2023-09-17T05:08:50.566Z,7.40
2023-09-17T05:11:21.284Z,7.07
2023-09-17T05:14:14.459Z,7.37
2023-09-17T05:16:43.439Z,7.37
2023-09-17T05:19:11.859Z,7.33
2023-09-17T05:21:40.216Z,7.03
2023-09-17T05:24:15.389Z,6.73
2023-09-17T05:26:44.932Z,7.10
2023-09-17T05:29:18.442Z,6.83
2023-09-17T05:31:48.242Z,7.87
2023-09-17T05:34:17.180Z,7.53
2023-09-17T05:36:45.501Z,7.83
2023-09-17T05:39:13.737Z,7.20
2023-09-17T05:41:41.849Z,7.80
2023-09-17T05:44:12.330Z,7.97
2023-09-17T05:46:42.408Z,7.53
2023-09-17T05:49:11.160Z,7.80
2023-09-17T05:51:40.003Z,7.37
2023-09-17T05:54:08.646Z,7.47
2023-09-17T05:56:36.820Z,7.67
2023-09-17T05:59:08.482Z,7.70
2023-09-17T06:01:40.846Z,7.27
2023-09-17T06:04:09.080Z,7.87
2023-09-17T06:06:37.280Z,7.80
2023-09-17T06:09:06.264Z,7.53
2023-09-17T06:11:37.680Z,7.63
2023-09-17T06:14:08.579Z,8.43
2023-09-17T06:16:54.038Z,7.63
2023-09-17T06:19:26.834Z,8.00
2023-09-17T06:21:58.556Z,7.68
2023-09-17T06:24:26.797Z,8.25
2023-09-17T06:26:54.918Z,8.30
2023-09-17T06:29:23.171Z,7.60
2023-09-17T06:31:52.261Z,7.80
2023-09-17T06:34:21.092Z,7.88
2023-09-17T06:36:53.669Z,8.07
2023-09-17T06:39:22.015Z,7.68
2023-09-17T06:41:50.103Z,8.70
2023-09-17T06:44:20.378Z,8.40
2023-09-17T06:46:48.812Z,8.10
2023-09-17T06:49:17.033Z,8.30
2023-09-17T06:51:46.330Z,7.68
2023-09-17T06:54:15.854Z,8.20
2023-09-17T06:56:43.991Z,8.43
2023-09-17T06:59:12.230Z,7.65
2023-09-17T07:01:46.420Z,7.47
2023-09-17T07:04:14.706Z,8.15
2023-09-17T07:06:43.013Z,7.95
2023-09-17T07:09:11.133Z,7.90
2023-09-17T07:11:40.696Z,7.50
2023-09-17T07:14:11.634Z,7.55
2023-09-17T07:16:40.655Z,8.15
2023-09-17T07:19:10.849Z,7.80
2023-09-17T07:21:39.031Z,8.07
2023-09-17T07:24:12.203Z,8.07
2023-09-17T07:26:42.530Z,7.93
2023-09-17T07:29:10.702Z,7.55
2023-09-17T07:31:39.476Z,7.95
2023-09-17T07:34:07.750Z,7.65
2023-09-17T07:36:35.873Z,8.05
2023-09-17T07:39:07.142Z,9.05
2023-09-17T07:41:35.269Z,7.88
2023-09-17T07:44:07.444Z,7.43
2023-09-17T07:46:35.879Z,7.63
2023-09-17T07:49:04.057Z,8.30
2023-09-17T07:51:37.381Z,7.88
2023-09-17T07:54:05.997Z,8.57
2023-09-17T07:56:34.288Z,7.88
2023-09-17T07:59:05.590Z,7.70
2023-09-17T08:01:33.833Z,7.97
2023-09-17T08:04:02.997Z,8.05
2023-09-17T08:06:34.428Z,8.35
2023-09-17T08:09:02.791Z,8.60
2023-09-17T08:11:30.920Z,8.00
2023-09-17T08:14:00.133Z,7.22
2023-09-17T08:16:30.716Z,8.30
2023-09-17T08:18:59.058Z,8.20
2023-09-17T08:21:29.312Z,8.18
2023-09-17T08:24:00.507Z,7.68
2023-09-17T08:26:32.570Z,7.85
2023-09-17T08:29:01.454Z,7.57
2023-09-17T08:31:31.412Z,8.25
2023-09-17T08:33:59.541Z,7.72
2023-09-17T08:36:28.415Z,8.05
2023-09-17T08:38:56.602Z,8.15
2023-09-17T08:41:25.035Z,7.95
2023-09-17T08:43:55.980Z,7.85
2023-09-17T08:46:27.569Z,7.68
2023-09-17T08:48:59.389Z,7.50
2023-09-17T08:51:31.266Z,7.82
2023-09-17T08:54:07.418Z,7.80
2023-09-17T08:56:43.248Z,7.78
2023-09-17T08:59:15.422Z,8.55
2023-09-17T09:01:46.980Z,7.78
2023-09-17T09:04:18.131Z,8.77
2023-09-17T09:09:41.460Z,8.35
2023-09-17T09:12:09.982Z,8.23
2023-09-17T09:14:39.354Z,8.40
2023-09-17T09:17:08.394Z,9.48
2023-09-17T09:19:38.113Z,7.93
2023-09-17T09:22:06.441Z,7.68
2023-09-17T09:24:44.449Z,8.00
2023-09-17T09:27:12.725Z,7.85
2023-09-17T09:29:43.693Z,7.28
2023-09-17T09:32:16.197Z,7.75
2023-09-17T09:34:48.382Z,7.35
2023-09-17T09:37:18.397Z,7.43
2023-09-17T09:39:47.431Z,7.25
2023-09-17T09:42:16.715Z,7.10
2023-09-17T09:44:45.545Z,8.48
2023-09-17T09:47:16.039Z,7.18
2023-09-17T09:49:46.716Z,7.40
2023-09-17T09:52:16.183Z,6.93
2023-09-17T09:54:49.499Z,7.70
2023-09-17T09:57:20.422Z,7.45
2023-09-17T09:59:51.903Z,6.85
2023-09-17T10:02:23.226Z,7.38
2023-09-17T10:04:54.518Z,7.75
2023-09-17T10:07:27.113Z,6.78
2023-09-17T10:09:56.561Z,7.28
2023-09-17T10:12:24.884Z,7.15
2023-09-17T10:14:53.602Z,7.30
2023-09-17T10:17:22.189Z,7.30
2023-09-17T10:19:57.544Z,7.30
2023-09-17T10:22:26.768Z,6.70
2023-09-17T10:24:56.543Z,6.78
2023-09-17T10:27:27.464Z,6.65
2023-09-17T10:30:00.115Z,6.82
2023-09-17T10:32:30.268Z,6.03
2023-09-17T10:35:03.580Z,5.97
2023-09-17T10:37:34.480Z,6.18
2023-09-17T10:40:03.550Z,6.25
2023-09-17T10:42:35.493Z,6.07
2023-09-17T10:45:06.320Z,5.50
2023-09-17T10:47:38.876Z,5.85
2023-09-17T10:50:09.489Z,6.20
2023-09-17T10:52:38.051Z,6.50
2023-09-17T10:55:09.460Z,6.38
2023-09-17T10:57:42.483Z,6.53
2023-09-17T11:00:18.571Z,6.95
2023-09-17T11:02:50.533Z,7.10
2023-09-17T11:05:27.244Z,6.35
2023-09-17T11:08:03.374Z,6.22
2023-09-17T11:10:33.054Z,5.85
2023-09-17T11:13:02.804Z,6.47
2023-09-17T11:15:33.085Z,5.93
2023-09-17T11:18:02.801Z,5.80
2023-09-17T11:20:33.268Z,6.15
2023-09-17T11:23:03.549Z,6.00
2023-09-17T11:25:39.122Z,6.18
2023-09-17T11:28:11.924Z,5.95
2023-09-17T11:30:58.232Z,5.60
2023-09-17T11:33:28.585Z,6.43
2023-09-17T11:36:03.607Z,6.32
2023-09-17T11:38:32.162Z,6.28
2023-09-17T11:41:11.474Z,6.18
2023-09-17T11:43:41.588Z,6.00
2023-09-17T11:46:11.036Z,5.57
2023-09-17T11:48:39.945Z,6.25
2023-09-17T11:51:24.351Z,6.47
2023-09-17T11:53:57.504Z,5.40
2023-09-17T11:56:26.841Z,5.70
2023-09-17T11:59:06.654Z,5.05
2023-09-17T12:01:37.634Z,5.40
2023-09-17T12:04:08.433Z,5.32
2023-09-17T12:06:40.974Z,5.47
2023-09-17T12:09:18.317Z,5.45
2023-09-17T12:11:48.421Z,5.30
2023-09-17T12:14:21.579Z,5.65
2023-09-17T12:16:50.565Z,5.85
2023-09-17T12:19:20.517Z,4.72
2023-09-17T12:21:52.175Z,5.00
2023-09-17T12:24:27.488Z,4.88
2023-09-17T12:27:20.399Z,7.18
2023-09-17T12:29:49.617Z,5.57
2023-09-17T12:32:21.099Z,5.32
2023-09-17T12:34:51.955Z,5.30
2023-09-17T12:37:23.587Z,5.50
2023-09-17T12:39:53.473Z,5.32
2023-09-17T12:42:23.136Z,5.05
2023-09-17T12:44:53.644Z,4.88
2023-09-17T12:47:22.571Z,5.18
2023-09-17T12:49:51.562Z,5.00
2023-09-17T12:52:22.256Z,4.82
2023-09-17T12:54:54.799Z,5.22
2023-09-17T12:57:25.574Z,5.30
2023-09-17T12:59:54.575Z,4.53
2023-09-17T13:02:31.759Z,5.18
2023-09-17T13:05:00.380Z,4.93
2023-09-17T13:07:36.114Z,4.75
2023-09-17T13:10:04.376Z,4.50
2023-09-17T13:12:34.411Z,4.68
2023-09-17T13:15:04.864Z,4.53
2023-09-17T13:17:34.615Z,4.85
2023-09-17T13:20:03.070Z,4.53
2023-09-17T13:22:34.463Z,4.47
2023-09-17T13:25:03.578Z,4.30
2023-09-17T13:27:32.581Z,4.35
2023-09-17T13:30:01.484Z,4.68
2023-09-17T13:32:32.531Z,4.72
2023-09-17T13:35:01.757Z,4.55
2023-09-17T13:37:30.590Z,4.40
2023-09-17T13:40:00.596Z,4.93
2023-09-17T13:42:31.295Z,5.00
2023-09-17T13:45:01.779Z,5.22
2023-09-17T13:47:31.670Z,4.85
2023-09-17T13:50:01.865Z,4.50
2023-09-17T13:52:30.214Z,4.50
2023-09-17T13:54:59.845Z,4.78
2023-09-17T13:57:28.146Z,4.60
2023-09-17T13:59:56.373Z,4.47
2023-09-17T14:02:24.598Z,4.53
2023-09-17T14:04:52.810Z,4.60
2023-09-17T14:07:21.619Z,4.75
2023-09-17T14:09:49.902Z,4.68
2023-09-17T14:12:19.349Z,4.57
2023-09-17T14:14:47.500Z,5.78
2023-09-17T14:17:19.653Z,4.95
2023-09-17T14:19:48.322Z,4.43
2023-09-17T14:22:16.438Z,4.40
2023-09-17T14:24:45.654Z,4.65
2023-09-17T14:27:14.373Z,4.78
2023-09-17T14:29:45.318Z,4.88
2023-09-17T14:32:13.639Z,4.45
2023-09-17T14:34:43.155Z,4.40
2023-09-17T14:37:11.395Z,4.78
2023-09-17T14:39:39.535Z,5.05
2023-09-17T14:42:09.387Z,4.45
2023-09-17T14:44:39.346Z,4.60
2023-09-17T14:47:12.580Z,4.75
2023-09-17T14:49:40.864Z,4.78
2023-09-17T14:52:09.414Z,4.60
2023-09-17T14:54:37.497Z,4.68
2023-09-17T14:57:07.653Z,4.82
2023-09-17T14:59:36.511Z,4.70
2023-09-17T15:02:04.992Z,4.93
2023-09-17T15:04:34.807Z,5.15
2023-09-17T15:07:03.662Z,4.90
2023-09-17T15:09:35.704Z,4.78
2023-09-17T15:12:04.832Z,4.78
2023-09-17T15:14:33.005Z,7.00
2023-09-17T15:17:01.340Z,5.15
2023-09-17T15:19:30.500Z,5.05
2023-09-17T15:22:00.201Z,4.82
2023-09-17T15:24:28.712Z,4.95
2023-09-17T15:26:59.533Z,5.10
2023-09-17T15:29:27.708Z,5.07
2023-09-17T15:31:57.717Z,5.47
2023-09-17T15:34:26.304Z,6.93
2023-09-17T15:36:54.640Z,36.53
2023-09-17T15:39:26.185Z,45.22
2023-09-17T15:41:55.615Z,12.90
2023-09-17T15:44:25.736Z,7.43
2023-09-17T15:46:54.114Z,7.25
2023-09-17T15:49:22.351Z,11.02
2023-09-17T15:51:50.683Z,9.63
2023-09-17T15:54:19.014Z,7.45
2023-09-17T15:56:48.568Z,7.65
2023-09-17T15:59:16.653Z,7.38
2023-09-17T16:01:47.766Z,6.80
2023-09-17T16:04:16.970Z,7.28
2023-09-17T16:06:45.202Z,6.90
2023-09-17T16:09:16.633Z,6.35
2023-09-17T16:11:44.779Z,6.22
2023-09-17T16:14:14.825Z,6.00
2023-09-17T16:16:43.327Z,6.68
2023-09-17T16:19:15.509Z,6.45
2023-09-17T16:21:43.686Z,5.60
2023-09-17T16:24:13.448Z,6.18
2023-09-17T16:26:41.619Z,6.22
2023-09-17T16:29:09.767Z,5.95
2023-09-17T16:31:41.799Z,6.07
2023-09-17T16:34:10.173Z,5.63
2023-09-17T16:36:40.982Z,5.88
2023-09-17T16:39:09.088Z,6.18
2023-09-17T16:41:37.322Z,6.82
2023-09-17T16:44:05.662Z,6.72
2023-09-17T16:46:33.906Z,6.43
2023-09-17T16:49:03.866Z,6.07
2023-09-17T16:51:32.000Z,6.57
2023-09-17T16:54:00.385Z,6.53
2023-09-17T16:56:28.517Z,6.80
2023-09-17T16:59:00.262Z,6.93
2023-09-17T17:01:29.201Z,6.97
2023-09-17T17:04:00.861Z,6.50
2023-09-17T17:06:30.670Z,6.10
2023-09-17T17:08:59.016Z,6.50
2023-09-17T17:11:27.240Z,6.50
2023-09-17T17:13:56.142Z,6.78
2023-09-17T17:16:27.343Z,7.18
2023-09-17T17:18:58.192Z,6.60
2023-09-17T17:21:26.452Z,6.53
2023-09-17T17:23:55.982Z,6.85
2023-09-17T17:26:24.663Z,7.20
2023-09-17T17:28:55.155Z,6.97
2023-09-17T17:31:24.306Z,7.28
2023-09-17T17:33:54.450Z,6.72
2023-09-17T17:36:22.957Z,7.00
2023-09-17T17:38:51.471Z,6.82
2023-09-17T17:41:24.636Z,6.75
2023-09-17T17:43:53.230Z,6.25
2023-09-17T17:46:21.583Z,6.55
2023-09-17T17:48:50.669Z,6.18
2023-09-17T17:51:18.939Z,6.50
2023-09-17T17:53:47.176Z,6.80
2023-09-17T17:56:15.429Z,6.70
2023-09-17T17:58:45.107Z,7.03
2023-09-17T18:01:13.364Z,6.53
2023-09-17T18:03:41.620Z,6.75
2023-09-17T18:06:09.786Z,6.40
2023-09-17T18:08:38.066Z,6.25
2023-09-17T18:11:06.551Z,5.88
2023-09-17T18:13:34.768Z,5.70
2023-09-17T18:16:04.285Z,5.07
2023-09-17T18:18:35.235Z,4.40
2023-09-17T18:21:03.358Z,4.15
2023-09-17T18:23:31.672Z,4.28
2023-09-17T18:25:59.808Z,4.05
2023-09-17T18:28:29.560Z,3.83
2023-09-17T18:30:57.788Z,4.70
2023-09-17T18:33:28.964Z,4.80
2023-09-17T18:35:58.173Z,5.13
2023-09-17T18:38:27.806Z,6.03
2023-09-17T18:40:56.790Z,5.20
2023-09-17T18:43:24.958Z,5.40
2023-09-17T18:45:55.789Z,4.88
2023-09-17T18:48:24.474Z,5.22
2023-09-17T18:50:54.341Z,5.53
2023-09-17T18:53:22.933Z,5.70
2023-09-17T18:55:51.122Z,6.00
2023-09-17T18:58:19.803Z,5.30
2023-09-17T19:00:48.868Z,5.25
2023-09-17T19:03:22.236Z,5.00
2023-09-17T19:05:50.604Z,5.20
2023-09-17T19:08:20.113Z,3.63
2023-09-17T19:10:51.277Z,4.10
2023-09-17T19:13:20.861Z,4.00
2023-09-17T19:15:49.227Z,4.28
2023-09-17T19:18:21.008Z,4.38
2023-09-17T19:20:52.431Z,4.63
2023-09-17T19:23:22.256Z,3.90
2023-09-17T19:25:52.260Z,4.50
2023-09-17T19:28:20.499Z,4.18
2023-09-17T19:30:48.656Z,4.57
2023-09-17T19:33:18.430Z,5.00
2023-09-17T19:35:48.458Z,4.18
2023-09-17T19:38:16.929Z,4.18
2023-09-17T19:40:47.456Z,4.80
2023-09-17T19:43:15.803Z,4.50
2023-09-17T19:45:50.707Z,4.47
2023-09-17T19:48:20.735Z,4.10
2023-09-17T19:50:49.496Z,4.20
2023-09-17T19:53:20.220Z,4.07
2023-09-17T19:55:52.690Z,3.88
2023-09-17T19:58:21.867Z,3.90
2023-09-17T20:00:50.043Z,4.13
2023-09-17T20:03:22.373Z,3.53
2023-09-17T20:05:51.113Z,3.72
2023-09-17T20:08:19.504Z,3.75
2023-09-17T20:10:49.190Z,3.33
2023-09-17T20:13:17.861Z,6.03
2023-09-17T20:15:49.111Z,4.50
2023-09-17T20:18:19.886Z,3.95
2023-09-17T20:20:49.431Z,5.15
2023-09-17T20:23:17.898Z,3.78
2023-09-17T20:25:47.830Z,3.67
2023-09-17T20:28:20.410Z,3.58
2023-09-17T20:30:52.132Z,4.13
2023-09-17T20:33:22.012Z,4.00
2023-09-17T20:35:51.232Z,3.47
2023-09-17T20:38:19.776Z,3.92
2023-09-17T20:40:51.902Z,4.20
2023-09-17T20:43:21.527Z,4.38
2023-09-17T20:45:51.897Z,3.50
2023-09-17T20:48:20.241Z,3.85
2023-09-17T20:50:48.874Z,4.15
2023-09-17T20:53:17.016Z,4.00
2023-09-17T20:55:45.932Z,3.80
2023-09-17T20:58:14.178Z,4.18
2023-09-17T21:00:43.647Z,3.60
2023-09-17T21:03:12.906Z,3.55
2023-09-17T21:05:47.512Z,4.20
2023-09-17T21:08:17.941Z,4.00
2023-09-17T21:10:46.166Z,4.03
2023-09-17T21:13:15.325Z,4.10
2023-09-17T21:15:49.057Z,4.07
2023-09-17T21:18:19.103Z,4.30
2023-09-17T21:20:47.996Z,4.10
2023-09-17T21:23:20.317Z,4.32
2023-09-17T21:25:48.787Z,3.65
2023-09-17T21:28:17.919Z,4.30
2023-09-17T21:30:47.716Z,3.95
2023-09-17T21:33:16.976Z,4.25
2023-09-17T21:35:45.135Z,3.95
2023-09-17T21:38:13.304Z,4.07
2023-09-17T21:40:45.325Z,4.07
2023-09-17T21:43:13.947Z,3.90
2023-09-17T21:45:42.108Z,4.60
2023-09-17T21:48:12.461Z,4.25
2023-09-17T21:50:43.953Z,4.50
2023-09-17T21:53:14.984Z,4.10
2023-09-17T21:55:43.992Z,5.72
2023-09-17T21:58:12.435Z,5.50
2023-09-17T22:00:41.214Z,5.30
2023-09-17T22:03:13.094Z,5.28
2023-09-17T22:05:43.834Z,4.80
2023-09-17T22:08:14.069Z,4.85
2023-09-17T22:10:42.336Z,4.43
2023-09-17T22:13:11.148Z,4.88
2023-09-17T22:15:39.737Z,4.78
2023-09-17T22:18:08.049Z,4.40
2023-09-17T22:20:37.575Z,4.32
2023-09-17T22:23:07.076Z,4.55
2023-09-17T22:25:35.203Z,4.35
2023-09-17T22:28:08.665Z,4.60
2023-09-17T22:30:36.855Z,4.55
2023-09-17T22:33:06.125Z,4.30
2023-09-17T22:35:35.057Z,4.30
2023-09-17T22:38:04.937Z,3.90
2023-09-17T22:40:35.489Z,4.60
2023-09-17T22:43:03.735Z,4.28
2023-09-17T22:45:34.297Z,4.40
2023-09-17T22:48:02.977Z,4.57
2023-09-17T22:50:32.545Z,4.75
2023-09-17T22:53:07.004Z,4.10
2023-09-17T22:55:35.147Z,4.40
2023-09-17T22:58:04.939Z,4.00
2023-09-17T23:00:33.962Z,4.60
2023-09-17T23:03:02.135Z,5.45
2023-09-17T23:05:30.906Z,4.97
2023-09-17T23:07:59.100Z,5.20
2023-09-17T23:10:29.534Z,5.43
2023-09-17T23:12:57.963Z,5.00
2023-09-17T23:15:26.669Z,4.38
2023-09-17T23:18:01.025Z,4.53
2023-09-17T23:20:31.328Z,4.97
2023-09-17T23:22:59.969Z,4.50
2023-09-17T23:25:29.455Z,4.53
2023-09-17T23:28:01.044Z,4.50
2023-09-17T23:30:29.958Z,4.55
2023-09-17T23:32:58.459Z,4.93
2023-09-17T23:35:27.031Z,4.57
2023-09-17T23:37:55.154Z,4.57
2023-09-17T23:40:25.708Z,4.70
2023-09-17T23:42:57.016Z,4.43
2023-09-17T23:45:25.166Z,4.57
2023-09-17T23:47:53.901Z,4.30
2023-09-17T23:50:22.820Z,4.47
2023-09-17T23:52:51.005Z,4.57
2023-09-17T23:55:19.971Z,4.40
2023-09-17T23:57:48.074Z,4.55
